Hanjin Chongqing — 3EPJ2 — position and weather

sailwx.info

Track history (hours):
 
Tides and Currents Weather Stations Pressure Air Temp Water Temp Dewpoint Dewpoint Depression Visibility Wind Speed Wind Dir Waves Ship Positions

Hanjin Chongqing

Last reported at 2015-Jan-30 06:33 UTC. Time now 2015-Jan-31 21:12 UTC.
Position N 01°16' E 104°15'.

Length 304 m; draft 12 m.

Type: Cargo ship. MMSI: 353957976.

Date/timePositionNaut miles runAvg speedWind from/ knotsBaromVisibWave heightAir tempDewpointWater temp
2015-Jan-30 06:33N 01°16' E 104°15'1515.6
2015-Jan-30 05:33N 01°14' E 103°59'9 8.8
2015-Jan-30 04:33N 01°16' E 103°51'1 1.0
2015-Jan-30 03:31N 01°16' E 103°50'0 0.0
2015-Jan-30 02:31N 01°16' E 103°50'0 0.0
2015-Jan-30 01:31N 01°16' E 103°50'0 0.0
2015-Jan-30 00:31N 01°16' E 103°50'0 0.0
2015-Jan-29 23:31N 01°16' E 103°50'0 0.0
2015-Jan-29 22:31N 01°16' E 103°50'0 0.1
2015-Jan-29 21:31N 01°16' E 103°50'0 0.0
2015-Jan-29 20:31N 01°16' E 103°50'0 0.1
2015-Jan-29 19:31N 01°16' E 103°50'0 0.0
2015-Jan-29 18:13N 01°16' E 103°50'0 0.0
2015-Jan-29 17:31N 01°16' E 103°50'2 2.5
2015-Jan-29 16:34N 01°15' E 103°52'5 5.0
2015-Jan-29 15:33N 01°15' E 103°57'1111.0
2015-Jan-29 14:33N 01°17' E 104°08'  
2015-Jan-24 13:24N 21°48' E 114°24'1212.0
2015-Jan-24 12:26N 21°59' E 114°29'1112.0
2015-Jan-24 11:33N 22°09' E 114°30'1211.6
2015-Jan-24 10:33N 22°21' E 114°29'18 9.0
2015-Jan-24 08:33N 22°34' E 114°16'0 0.1
2015-Jan-24 07:30N 22°34' E 114°16'0 0.0
2015-Jan-24 06:30N 22°34' E 114°16'0 0.1
2015-Jan-24 05:30N 22°34' E 114°16'0 0.1
2015-Jan-24 04:30N 22°34' E 114°16'0 0.0
2015-Jan-24 03:30N 22°34' E 114°16'0 0.0
2015-Jan-24 02:06N 22°34' E 114°16'0 0.0
2015-Jan-24 01:03N 22°34' E 114°16'1 2.6
2015-Jan-24 00:33N 22°34' E 114°17'9910.4
2015-Jan-23 15:04N 22°31' E 116°04'8 2.0
2015-Jan-23 11:17N 22°32' E 116°12'7 9.5
2015-Jan-23 10:33N 22°33' E 116°20'1110.1
2015-Jan-23 09:27N 22°33' E 116°32'1011.2
2015-Jan-23 08:32N 22°36' E 116°42'1110.7
2015-Jan-23 07:33N 22°45' E 116°48'1110.7
2015-Jan-23 06:33N 22°51' E 116°58'1110.6
2015-Jan-23 05:30N 22°56' E 117°08'6510.8
2015-Jan-22 23:27N 23°37' E 118°04'1011.4
2015-Jan-22 22:33N 23°43' E 118°13'1211.8
2015-Jan-22 21:33N 23°50' E 118°23'1312.4
2015-Jan-22 20:31N 23°58' E 118°34'2912.8
2015-Jan-22 18:16N 24°16' E 118°59'1013.0
2015-Jan-22 17:28N 24°22' E 119°08'1212.4
2015-Jan-22 16:33N 24°30' E 119°17'32810.9
2015-Jan-21 10:32N 29°11' E 122°27'1111.2
2015-Jan-21 09:31N 29°22' E 122°28'1212.4
2015-Jan-21 08:33N 29°34' E 122°28'1211.9
2015-Jan-21 07:33N 29°44' E 122°20'1312.7
2015-Jan-21 06:34N 29°53' E 122°11'1312.6
2015-Jan-21 05:34N 29°57' E 121°57'4 3.6
2015-Jan-21 04:21N 29°56' E 121°52'0 0.0
2015-Jan-21 01:30N 29°56' E 121°52'0 0.0
2015-Jan-21 00:33N 29°56' E 121°52'0 0.0
2015-Jan-20 23:21N 29°56' E 121°52'0 0.0
2015-Jan-20 22:30N 29°56' E 121°52'0 0.0
2015-Jan-20 21:21N 29°56' E 121°52'0 0.0
2015-Jan-20 20:33N 29°56' E 121°52'0 0.0
2015-Jan-20 19:24N 29°56' E 121°52'0 0.0
2015-Jan-20 18:33N 29°56' E 121°52'0 0.3
2015-Jan-20 17:33N 29°56' E 121°52'9 9.0
2015-Jan-20 16:33N 29°55' E 122°03'1212.5
2015-Jan-20 15:33N 29°48' E 122°14'1111.0
2015-Jan-20 14:33N 29°44' E 122°26'1010.1
2015-Jan-20 13:33N 29°46' E 122°37'1513.6
2015-Jan-20 12:26N 29°57' E 122°50'2713.2
2015-Jan-20 10:23N 30°23' E 123°00'1213.7
2015-Jan-20 09:32N 30°34' E 122°58'1414.2
2015-Jan-20 08:33N 30°47' E 122°53'1816.3
2015-Jan-20 07:28N 31°02' E 122°40'1314.3
2015-Jan-20 06:34N 31°05' E 122°26'  
Track history (hours):
 
Tides and Currents Weather Stations Pressure Air Temp Water Temp Dewpoint Dewpoint Depression Visibility Wind Speed Wind Dir Waves Ship Positions

Hanjin Chongqing

Last reported at 2015-Jan-30 06:33 UTC. Time now 2015-Jan-31 21:12 UTC.
Position N 01°16' E 104°15'.

Length 304 m; draft 12 m.

Type: Cargo ship. MMSI: 353957976.

Date/timePositionNaut miles runAvg speedWind from/ knotsBaromVisibWave heightAir tempDewpointWater temp
2015-Jan-30 06:33N 01°16' E 104°15'1515.6
2015-Jan-30 05:33N 01°14' E 103°59'9 8.8
2015-Jan-30 04:33N 01°16' E 103°51'1 1.0
2015-Jan-30 03:31N 01°16' E 103°50'0 0.0
2015-Jan-30 02:31N 01°16' E 103°50'0 0.0
2015-Jan-30 01:31N 01°16' E 103°50'0 0.0
2015-Jan-30 00:31N 01°16' E 103°50'0 0.0
2015-Jan-29 23:31N 01°16' E 103°50'0 0.0
2015-Jan-29 22:31N 01°16' E 103°50'0 0.1
2015-Jan-29 21:31N 01°16' E 103°50'0 0.0
2015-Jan-29 20:31N 01°16' E 103°50'0 0.1
2015-Jan-29 19:31N 01°16' E 103°50'0 0.0
2015-Jan-29 18:13N 01°16' E 103°50'0 0.0
2015-Jan-29 17:31N 01°16' E 103°50'2 2.5
2015-Jan-29 16:34N 01°15' E 103°52'5 5.0
2015-Jan-29 15:33N 01°15' E 103°57'1111.0
2015-Jan-29 14:33N 01°17' E 104°08'  
2015-Jan-24 13:24N 21°48' E 114°24'1212.0
2015-Jan-24 12:26N 21°59' E 114°29'1112.0
2015-Jan-24 11:33N 22°09' E 114°30'1211.6
2015-Jan-24 10:33N 22°21' E 114°29'18 9.0
2015-Jan-24 08:33N 22°34' E 114°16'0 0.1
2015-Jan-24 07:30N 22°34' E 114°16'0 0.0
2015-Jan-24 06:30N 22°34' E 114°16'0 0.1
2015-Jan-24 05:30N 22°34' E 114°16'0 0.1
2015-Jan-24 04:30N 22°34' E 114°16'0 0.0
2015-Jan-24 03:30N 22°34' E 114°16'0 0.0
2015-Jan-24 02:06N 22°34' E 114°16'0 0.0
2015-Jan-24 01:03N 22°34' E 114°16'1 2.6
2015-Jan-24 00:33N 22°34' E 114°17'9910.4
2015-Jan-23 15:04N 22°31' E 116°04'8 2.0
2015-Jan-23 11:17N 22°32' E 116°12'7 9.5
2015-Jan-23 10:33N 22°33' E 116°20'1110.1
2015-Jan-23 09:27N 22°33' E 116°32'1011.2
2015-Jan-23 08:32N 22°36' E 116°42'1110.7
2015-Jan-23 07:33N 22°45' E 116°48'1110.7
2015-Jan-23 06:33N 22°51' E 116°58'1110.6
2015-Jan-23 05:30N 22°56' E 117°08'6510.8
2015-Jan-22 23:27N 23°37' E 118°04'1011.4
2015-Jan-22 22:33N 23°43' E 118°13'1211.8
2015-Jan-22 21:33N 23°50' E 118°23'1312.4
2015-Jan-22 20:31N 23°58' E 118°34'2912.8
2015-Jan-22 18:16N 24°16' E 118°59'1013.0
2015-Jan-22 17:28N 24°22' E 119°08'1212.4
2015-Jan-22 16:33N 24°30' E 119°17'32810.9
2015-Jan-21 10:32N 29°11' E 122°27'1111.2
2015-Jan-21 09:31N 29°22' E 122°28'1212.4
2015-Jan-21 08:33N 29°34' E 122°28'1211.9
2015-Jan-21 07:33N 29°44' E 122°20'1312.7
2015-Jan-21 06:34N 29°53' E 122°11'1312.6
2015-Jan-21 05:34N 29°57' E 121°57'4 3.6
2015-Jan-21 04:21N 29°56' E 121°52'0 0.0
2015-Jan-21 01:30N 29°56' E 121°52'0 0.0
2015-Jan-21 00:33N 29°56' E 121°52'0 0.0
2015-Jan-20 23:21N 29°56' E 121°52'0 0.0
2015-Jan-20 22:30N 29°56' E 121°52'0 0.0
2015-Jan-20 21:21N 29°56' E 121°52'0 0.0
2015-Jan-20 20:33N 29°56' E 121°52'0 0.0
2015-Jan-20 19:24N 29°56' E 121°52'0 0.0
2015-Jan-20 18:33N 29°56' E 121°52'0 0.3
2015-Jan-20 17:33N 29°56' E 121°52'9 9.0
2015-Jan-20 16:33N 29°55' E 122°03'1212.5
2015-Jan-20 15:33N 29°48' E 122°14'1111.0
2015-Jan-20 14:33N 29°44' E 122°26'1010.1
2015-Jan-20 13:33N 29°46' E 122°37'1513.6
2015-Jan-20 12:26N 29°57' E 122°50'2713.2
2015-Jan-20 10:23N 30°23' E 123°00'1213.7
2015-Jan-20 09:32N 30°34' E 122°58'1414.2
2015-Jan-20 08:33N 30°47' E 122°53'1816.3
2015-Jan-20 07:28N 31°02' E 122°40'1314.3
2015-Jan-20 06:34N 31°05' E 122°26'  

Dump ship's entire track history